Time;durP1;ratioP1;P1;durP2;ratioP2;P2;SDS_P1;SDS_P2;PMS_P1;PMS_P2;Temp;Humidity;BMP_temperature;BMP_pressure;BME280_temperature;BME280_humidity;BME280_pressure;Samples;Min_cycle;Max_cycle;Signal;HPM_P1;HPM_P2
2023/03/23 00:00:05;;;;;;;20.52;8.80;;;;;;;8.52;100.00;97759.66;2530420;29;20107;-88
2023/03/23 00:01:21;;;;;;;18.05;8.43;;;;;;;8.44;100.00;97757.25;2529608;29;20130;-88
2023/03/23 00:02:37;;;;;;;14.98;8.30;;;;;;;8.32;100.00;97750.69;2529907;29;20088;-87
2023/03/23 00:03:56;;;;;;;16.83;8.32;;;;;;;8.26;100.00;97751.72;2526799;29;20048;-88
2023/03/23 00:05:12;;;;;;;13.60;7.55;;;;;;;8.33;100.00;97755.00;2530545;29;20196;-86
2023/03/23 00:06:32;;;;;;;17.10;8.85;;;;;;;8.30;100.00;97755.06;2531108;29;20131;-91
2023/03/23 00:07:51;;;;;;;16.48;8.48;;;;;;;8.37;100.00;97753.13;2529357;29;20077;-87
2023/03/23 00:09:08;;;;;;;20.55;8.20;;;;;;;8.37;100.00;97759.22;2532438;29;20500;-87
2023/03/23 00:10:26;;;;;;;17.40;8.45;;;;;;;8.38;100.00;97758.31;2529652;29;20052;-87
2023/03/23 00:11:42;;;;;;;15.38;7.97;;;;;;;8.44;100.00;97758.09;2530661;29;20079;-88
2023/03/23 00:13:02;;;;;;;13.48;7.53;;;;;;;8.43;100.00;97756.41;2529475;29;20056;-88
2023/03/23 00:14:22;;;;;;;14.10;8.23;;;;;;;8.31;100.00;97756.75;2531280;29;20413;-87
2023/03/23 00:15:41;;;;;;;16.55;8.93;;;;;;;8.34;100.00;97754.94;2532256;29;20055;-88
2023/03/23 00:16:57;;;;;;;21.88;9.30;;;;;;;8.35;100.00;97755.78;2530184;29;20411;-87
2023/03/23 00:18:20;;;;;;;18.27;9.57;;;;;;;8.31;100.00;97756.75;2530214;29;20432;-88
2023/03/23 00:19:45;;;;;;;16.95;8.98;;;;;;;8.38;100.00;97753.09;2530387;29;20465;-89
2023/03/23 00:21:03;;;;;;;17.80;9.65;;;;;;;8.41;100.00;97750.38;2531494;29;20060;-87
2023/03/23 00:22:20;;;;;;;16.27;8.32;;;;;;;8.40;100.00;97753.88;2531880;29;20169;-88
2023/03/23 00:23:38;;;;;;;17.13;9.00;;;;;;;8.35;100.00;97750.56;2529737;29;20063;-86
2023/03/23 00:24:54;;;;;;;16.42;8.90;;;;;;;8.42;100.00;97744.25;2525957;29;20056;-87
2023/03/23 00:26:11;;;;;;;15.27;8.95;;;;;;;8.46;100.00;97758.06;2530674;29;20136;-87
2023/03/23 00:27:26;;;;;;;16.15;8.88;;;;;;;8.40;100.00;97750.44;2530427;29;20056;-88
2023/03/23 00:28:42;;;;;;;18.08;9.15;;;;;;;8.20;100.00;97746.66;2530647;29;20063;-87
2023/03/23 00:29:58;;;;;;;17.02;8.73;;;;;;;8.12;100.00;97749.50;2530775;29;20056;-87
2023/03/23 00:31:14;;;;;;;17.20;8.80;;;;;;;8.17;100.00;97747.63;2532074;29;20052;-88
2023/03/23 00:32:29;;;;;;;15.73;8.60;;;;;;;8.22;100.00;97746.63;2531681;29;20053;-87
2023/03/23 00:33:45;;;;;;;19.65;9.05;;;;;;;8.13;100.00;97746.00;2531177;29;20168;-89
2023/03/23 00:35:01;;;;;;;18.70;8.05;;;;;;;8.23;100.00;97750.94;2529982;29;20056;-87
2023/03/23 00:36:17;;;;;;;17.98;9.20;;;;;;;8.29;100.00;97745.53;2531256;29;20056;-88
2023/03/23 00:37:35;;;;;;;16.85;8.80;;;;;;;8.19;100.00;97742.34;2532224;29;20426;-89
2023/03/23 00:38:50;;;;;;;17.90;9.02;;;;;;;8.29;100.00;97738.56;2531703;29;20116;-87
2023/03/23 00:40:09;;;;;;;18.67;9.05;;;;;;;8.15;100.00;97745.94;2534097;29;20052;-87
2023/03/23 00:41:28;;;;;;;16.10;8.15;;;;;;;8.19;100.00;97734.53;2531945;29;20407;-87
2023/03/23 00:42:45;;;;;;;14.65;8.00;;;;;;;8.11;100.00;97736.53;2532209;29;20131;-91
2023/03/23 00:44:02;;;;;;;18.52;8.07;;;;;;;8.22;100.00;97739.63;2531656;29;20139;-87
2023/03/23 00:45:17;;;;;;;16.40;8.05;;;;;;;8.19;100.00;97735.41;2530942;29;20087;-88
2023/03/23 00:46:33;;;;;;;16.40;7.95;;;;;;;8.22;100.00;97737.03;2531711;29;20071;-89
2023/03/23 00:47:50;;;;;;;12.88;7.32;;;;;;;7.93;100.00;97733.53;2534416;29;20524;-88
2023/03/23 00:49:06;;;;;;;13.93;6.90;;;;;;;7.79;100.00;97733.94;2531693;29;20135;-87
2023/03/23 00:50:22;;;;;;;14.13;6.35;;;;;;;7.63;100.00;97725.69;2533447;29;20495;-87
2023/03/23 00:51:38;;;;;;;13.07;6.93;;;;;;;7.59;100.00;97729.28;2534379;29;20492;-88
2023/03/23 00:52:56;;;;;;;11.25;5.95;;;;;;;7.52;100.00;97719.91;2532456;29;20056;-87
2023/03/23 00:54:12;;;;;;;11.27;6.38;;;;;;;7.89;100.00;97724.09;2533253;29;20056;-88
2023/03/23 00:55:30;;;;;;;17.65;8.00;;;;;;;7.74;100.00;97717.56;2532198;29;20385;-87
2023/03/23 00:56:45;;;;;;;15.45;7.55;;;;;;;7.88;100.00;97714.56;2532980;29;20049;-87
2023/03/23 00:58:01;;;;;;;18.58;9.40;;;;;;;7.92;100.00;97721.41;2528348;29;20151;-87
2023/03/23 00:59:17;;;;;;;18.05;9.70;;;;;;;7.97;100.00;97713.44;2532605;29;20053;-87
2023/03/23 01:00:32;;;;;;;18.40;9.40;;;;;;;7.93;100.00;97723.09;2531935;29;20056;-88
2023/03/23 01:01:49;;;;;;;19.33;9.98;;;;;;;8.15;100.00;97714.66;2533479;29;20056;-87
2023/03/23 01:03:05;;;;;;;25.30;10.65;;;;;;;8.26;100.00;97720.41;2532808;29;20052;-87
2023/03/23 01:04:21;;;;;;;19.77;10.65;;;;;;;8.17;100.00;97715.47;2532324;29;20112;-87
2023/03/23 01:05:39;;;;;;;22.95;10.00;;;;;;;8.23;100.00;97715.28;2533300;29;20142;-87
2023/03/23 01:06:56;;;;;;;19.00;9.80;;;;;;;8.23;100.00;97715.28;2532565;29;20048;-88
2023/03/23 01:08:12;;;;;;;22.02;10.32;;;;;;;8.28;100.00;97713.41;2531075;29;20056;-86
2023/03/23 01:09:28;;;;;;;17.45;9.23;;;;;;;8.31;100.00;97717.66;2534208;29;20690;-88
2023/03/23 01:10:43;;;;;;;15.10;8.63;;;;;;;8.28;100.00;97712.53;2530952;29;20051;-88
2023/03/23 01:11:59;;;;;;;17.73;8.93;;;;;;;8.23;100.00;97704.84;2533373;29;20452;-87
2023/03/23 01:13:15;;;;;;;19.17;8.77;;;;;;;8.18;100.00;97706.75;2531800;29;20052;-88
2023/03/23 01:14:31;;;;;;;17.30;8.82;;;;;;;8.22;100.00;97700.53;2533138;29;20060;-87
2023/03/23 01:15:47;;;;;;;16.02;8.65;;;;;;;8.23;100.00;97701.41;2533523;29;20139;-87
2023/03/23 01:17:02;;;;;;;18.85;8.52;;;;;;;8.24;100.00;97690.94;2534346;29;20056;-87
2023/03/23 01:18:18;;;;;;;17.15;8.90;;;;;;;8.27;100.00;97696.03;2531590;29;20048;-89
2023/03/23 01:19:33;;;;;;;18.27;8.93;;;;;;;8.15;100.00;97691.19;2531397;29;20051;-87
2023/03/23 01:20:49;;;;;;;16.33;8.18;;;;;;;7.75;100.00;97694.06;2531793;29;20056;-88
2023/03/23 01:22:05;;;;;;;16.55;9.07;;;;;;;7.98;100.00;97691.69;2531073;29;20056;-87
2023/03/23 01:23:21;;;;;;;14.93;7.85;;;;;;;7.86;100.00;97683.34;2531591;29;20184;-87
2023/03/23 01:24:36;;;;;;;15.43;8.45;;;;;;;7.86;100.00;97687.72;2531615;29;20567;-88
2023/03/23 01:25:54;;;;;;;15.75;7.72;;;;;;;7.77;100.00;97687.06;2531525;29;20520;-87
2023/03/23 01:27:09;;;;;;;15.88;8.20;;;;;;;7.75;100.00;97683.66;2534387;29;20997;-88
2023/03/23 01:28:25;;;;;;;13.40;7.65;;;;;;;7.62;100.00;97690.13;2530727;29;20056;-87
2023/03/23 01:29:41;;;;;;;16.05;7.53;;;;;;;7.64;100.00;97688.31;2530998;29;20045;-87
2023/03/23 01:31:05;;;;;;;14.30;7.15;;;;;;;7.80;100.00;97687.88;2532201;29;20081;-87
2023/03/23 01:32:20;;;;;;;13.05;7.63;;;;;;;7.83;100.00;97687.81;2530989;29;20130;-88
2023/03/23 01:33:36;;;;;;;14.80;7.30;;;;;;;7.91;100.00;97691.03;2532108;29;20084;-88
2023/03/23 01:34:52;;;;;;;14.38;7.40;;;;;;;7.99;100.00;97681.22;2532913;29;20059;-87
2023/03/23 01:36:15;;;;;;;13.27;7.15;;;;;;;7.97;100.00;97687.38;2530800;29;20075;-87
2023/03/23 01:37:31;;;;;;;13.63;7.32;;;;;;;7.98;100.00;97679.53;2532315;29;20419;-87
2023/03/23 01:38:48;;;;;;;12.20;6.55;;;;;;;7.66;100.00;97678.69;2532144;29;20655;-86
2023/03/23 01:40:04;;;;;;;12.55;6.40;;;;;;;7.77;100.00;97673.19;2532863;29;20052;-86
2023/03/23 01:41:21;;;;;;;11.38;6.38;;;;;;;7.86;100.00;97675.50;2534143;29;20049;-87
2023/03/23 01:42:37;;;;;;;12.20;6.55;;;;;;;7.84;100.00;97673.88;2532216;29;20060;-87
2023/03/23 01:44:04;;;;;;;11.00;5.82;;;;;;;7.83;100.00;97670.41;2532904;29;20091;-86
2023/03/23 01:45:19;;;;;;;13.50;6.93;;;;;;;7.82;100.00;97678.25;2531552;29;20591;-87
2023/03/23 01:46:36;;;;;;;12.60;5.63;;;;;;;7.83;100.00;97670.41;2531482;29;20079;-88
2023/03/23 01:47:57;;;;;;;9.07;5.22;;;;;;;7.89;100.00;97670.22;2532305;29;20063;-86
2023/03/23 01:49:20;;;;;;;8.63;5.63;;;;;;;7.89;100.00;97665.03;2532501;29;20140;-87
2023/03/23 01:50:44;;;;;;;9.23;5.65;;;;;;;7.90;100.00;97665.88;2530836;29;20055;-87
2023/03/23 01:52:05;;;;;;;9.10;5.30;;;;;;;7.98;100.00;97663.03;2531087;29;20052;-86
2023/03/23 01:53:23;;;;;;;9.07;5.18;;;;;;;7.97;100.00;97666.53;2533457;29;20048;-86
2023/03/23 01:54:40;;;;;;;9.52;5.95;;;;;;;8.02;100.00;97665.50;2531961;29;20056;-88
2023/03/23 01:55:58;;;;;;;9.15;5.35;;;;;;;7.95;100.00;97671.78;2533914;29;20056;-87
2023/03/23 01:57:17;;;;;;;10.88;5.30;;;;;;;7.75;100.00;97670.63;2530942;29;20056;-87
2023/03/23 01:58:36;;;;;;;10.10;5.45;;;;;;;7.73;100.00;97669.81;2531562;29;20079;-87
2023/03/23 01:59:55;;;;;;;11.23;5.93;;;;;;;7.68;100.00;97666.47;2534060;29;21023;-87
2023/03/23 02:01:13;;;;;;;10.82;5.50;;;;;;;7.72;100.00;97667.25;2532218;29;20493;-90
2023/03/23 02:02:28;;;;;;;10.02;5.47;;;;;;;7.82;100.00;97671.31;2533310;29;20135;-86
2023/03/23 02:03:47;;;;;;;11.43;5.28;;;;;;;7.86;100.00;97675.50;2527533;29;20107;-87
2023/03/23 02:05:11;;;;;;;9.95;6.10;;;;;;;8.00;100.00;97672.50;2531643;29;20063;-90
2023/03/23 02:06:26;;;;;;;13.88;6.28;;;;;;;7.99;100.00;97673.41;2533304;29;20052;-88
2023/03/23 02:07:43;;;;;;;10.45;6.10;;;;;;;8.08;100.00;97669.69;2531708;29;20053;-86
2023/03/23 02:08:59;;;;;;;11.80;5.57;;;;;;;8.09;100.00;97670.50;2531645;29;20076;-88
2023/03/23 02:10:15;;;;;;;10.85;6.07;;;;;;;8.11;100.00;97666.97;2532514;29;20058;-88
2023/03/23 02:11:30;;;;;;;14.15;7.30;;;;;;;7.86;100.00;97665.09;2531555;29;20427;-88
2023/03/23 02:12:46;;;;;;;11.68;6.70;;;;;;;7.88;100.00;97659.84;2532281;29;20484;-88
2023/03/23 02:14:02;;;;;;;13.52;7.13;;;;;;;7.96;100.00;97665.69;2531804;29;20064;-86
2023/03/23 02:15:18;;;;;;;16.63;8.45;;;;;;;7.95;100.00;97663.97;2531981;29;20055;-86
2023/03/23 02:16:44;;;;;;;12.77;7.15;;;;;;;8.04;100.00;97658.47;2527420;29;20076;-87
2023/03/23 02:18:25;;;;;;;16.25;8.60;;;;;;;7.92;100.00;97661.44;2532400;29;20086;-87
2023/03/23 02:20:04;;;;;;;12.77;7.47;;;;;;;8.17;100.00;97658.09;2530918;29;20140;-87
2023/03/23 02:21:37;;;;;;;12.60;7.22;;;;;;;8.17;100.00;97665.94;2532832;29;20522;-86
2023/03/23 02:23:26;;;;;;;10.60;6.63;;;;;;;8.13;100.00;97652.13;2527532;29;20052;-86
2023/03/23 02:24:51;;;;;;;13.20;7.07;;;;;;;7.97;100.00;97656.97;2531867;29;20420;-87
2023/03/23 02:26:09;;;;;;;11.98;6.95;;;;;;;7.96;100.00;97654.41;2531813;29;20053;-87
2023/03/23 02:28:02;;;;;;;13.52;6.70;;;;;;;7.98;100.00;97648.25;2527459;29;20056;-86
2023/03/23 02:29:40;;;;;;;13.45;7.45;;;;;;;8.00;100.00;97646.44;2531240;29;20118;-86
2023/03/23 02:31:18;;;;;;;14.70;7.53;;;;;;;7.69;100.00;97643.91;2532014;29;20154;-90
2023/03/23 02:32:42;;;;;;;13.60;7.22;;;;;;;7.54;100.00;97648.66;2532960;29;20834;-88
2023/03/23 02:34:17;;;;;;;16.45;8.18;;;;;;;7.56;100.00;97638.19;2531544;29;20055;-87
2023/03/23 02:35:39;;;;;;;14.25;7.93;;;;;;;7.53;100.00;97644.34;2531468;29;20568;-86
2023/03/23 02:37:05;;;;;;;15.52;7.63;;;;;;;7.73;100.00;97641.16;2527148;29;20056;-86
2023/03/23 02:38:43;;;;;;;12.60;7.53;;;;;;;7.75;100.00;97639.34;2530535;29;20095;-87
2023/03/23 02:40:15;;;;;;;14.43;7.10;;;;;;;7.78;100.00;97643.63;2530650;29;20052;-89
2023/03/23 02:41:34;;;;;;;;;;;;;;;7.61;100.00;97639.78;2531520;29;20091;-86
2023/03/23 02:42:54;;;;;;;16.73;6.28;;;;;;;7.80;100.00;97647.03;2532221;29;19975;-88
2023/03/23 02:44:12;;;;;;;11.43;5.97;;;;;;;7.93;100.00;97638.88;2527564;29;20067;-85
2023/03/23 02:45:30;;;;;;;13.63;6.00;;;;;;;7.92;100.00;97635.38;2532082;29;20096;-87
2023/03/23 02:46:47;;;;;;;12.80;5.32;;;;;;;7.92;100.00;97635.38;2533552;29;20056;-87
2023/03/23 02:48:05;;;;;;;10.02;4.75;;;;;;;8.00;100.00;97642.97;2531696;29;20511;-87
2023/03/23 02:49:24;;;;;;;10.60;4.90;;;;;;;8.04;100.00;97642.00;2533081;29;20078;-88
2023/03/23 02:50:43;;;;;;;10.23;5.35;;;;;;;8.09;100.00;97639.22;2530540;29;20424;-88
2023/03/23 02:52:00;;;;;;;8.18;4.97;;;;;;;7.93;100.00;97638.88;2530534;29;20056;-86
2023/03/23 02:53:21;;;;;;;10.82;5.55;;;;;;;7.90;100.00;97642.41;2526996;29;20087;-88
2023/03/23 02:54:36;;;;;;;7.28;4.95;;;;;;;7.95;100.00;97643.09;2531190;29;20048;-87
2023/03/23 02:55:55;;;;;;;11.40;5.05;;;;;;;7.98;100.00;97643.03;2531846;29;20052;-87
2023/03/23 02:57:11;;;;;;;9.77;4.88;;;;;;;8.03;100.00;97643.75;2530919;29;20072;-86
2023/03/23 02:58:27;;;;;;;9.23;4.97;;;;;;;8.02;100.00;97636.81;2527091;29;20063;-86
2023/03/23 02:59:43;;;;;;;10.00;5.45;;;;;;;7.98;100.00;97640.44;2530880;29;20855;-88
2023/03/23 03:01:00;;;;;;;10.38;5.22;;;;;;;8.06;100.00;97634.97;2527234;29;20061;-86
2023/03/23 03:02:23;;;;;;;10.00;5.10;;;;;;;8.09;100.00;97642.69;2531303;29;20377;-86
2023/03/23 03:03:38;;;;;;;10.27;5.35;;;;;;;8.08;100.00;97637.53;2531372;29;20048;-88
2023/03/23 03:05:09;;;;;;;10.68;5.97;;;;;;;7.91;100.00;97646.72;2527077;29;20115;-86
2023/03/23 03:06:44;;;;;;;10.77;5.45;;;;;;;8.09;100.00;97641.84;2533142;29;20254;-86
2023/03/23 03:08:18;;;;;;;13.02;5.57;;;;;;;8.06;100.00;97635.81;2532813;29;20054;-86
2023/03/23 03:09:50;;;;;;;9.70;5.70;;;;;;;8.15;100.00;97639.06;2527080;29;20076;-86
2023/03/23 03:11:08;;;;;;;15.57;6.88;;;;;;;8.19;100.00;97638.91;2531186;29;20056;-85
2023/03/23 03:12:37;;;;;;;12.38;7.15;;;;;;;8.20;100.00;97642.34;2531234;29;20118;-87
2023/03/23 03:14:06;;;;;;;13.15;6.40;;;;;;;7.98;100.00;97642.16;2527001;29;20064;-86
2023/03/23 03:15:31;;;;;;;11.27;6.22;;;;;;;8.15;100.00;97639.88;2531188;29;20138;-90
2023/03/23 03:16:58;;;;;;;12.82;6.28;;;;;;;8.19;100.00;97645.88;2530942;29;20044;-86
2023/03/23 03:18:43;;;;;;;13.38;6.30;;;;;;;8.21;100.00;97649.28;2530450;29;20079;-85
2023/03/23 03:20:09;;;;;;;16.13;6.60;;;;;;;8.01;100.00;97650.75;2532692;29;20476;-86
2023/03/23 03:21:30;;;;;;;13.02;6.35;;;;;;;7.98;100.00;97647.38;2529996;29;20083;-85
2023/03/23 03:22:47;;;;;;;13.07;7.05;;;;;;;8.05;100.00;97641.09;2531908;29;20131;-86
2023/03/23 03:24:07;;;;;;;11.75;6.30;;;;;;;8.02;100.00;97639.44;2529836;29;20496;-85
2023/03/23 03:25:24;;;;;;;12.15;6.72;;;;;;;7.72;100.00;97647.28;2532450;29;20056;-88
2023/03/23 03:26:47;;;;;;;12.30;6.95;;;;;;;7.74;100.00;97650.69;2526652;29;20057;-90
2023/03/23 03:28:03;;;;;;;14.80;7.22;;;;;;;7.84;100.00;97647.81;2530688;29;20259;-87
2023/03/23 03:29:35;;;;;;;15.43;7.78;;;;;;;7.99;100.00;97647.34;2530947;29;20080;-88
2023/03/23 03:30:55;;;;;;;15.88;7.53;;;;;;;8.01;100.00;97653.38;2527006;29;20071;-89
2023/03/23 03:32:16;;;;;;;14.25;7.72;;;;;;;8.08;100.00;97645.34;2531004;29;20091;-88
2023/03/23 03:33:33;;;;;;;11.60;6.93;;;;;;;7.99;100.00;97649.09;2530242;29;20052;-88
2023/03/23 03:34:50;;;;;;;14.40;6.70;;;;;;;8.13;100.00;97649.53;2531435;29;20098;-88
2023/03/23 03:36:08;;;;;;;12.82;7.28;;;;;;;8.15;100.00;97646.88;2530276;29;20076;-88
2023/03/23 03:37:24;;;;;;;13.98;7.15;;;;;;;8.12;100.00;97642.59;2532351;29;20052;-90
2023/03/23 03:38:44;;;;;;;11.48;6.93;;;;;;;7.98;100.00;97634.34;2531744;29;20056;-88
2023/03/23 03:40:00;;;;;;;13.55;6.95;;;;;;;7.68;100.00;97630.00;2532252;29;20084;-88
2023/03/23 03:41:18;;;;;;;14.27;7.45;;;;;;;7.74;100.00;97632.44;2532435;29;20060;-88
2023/03/23 03:42:34;;;;;;;15.00;7.15;;;;;;;7.78;100.00;97639.25;2529844;29;20053;-87
2023/03/23 03:43:49;;;;;;;13.63;6.60;;;;;;;7.95;100.00;97644.88;2532324;29;20052;-87
2023/03/23 03:45:08;;;;;;;12.43;6.60;;;;;;;7.85;100.00;97639.09;2531713;29;20060;-87
2023/03/23 03:46:26;;;;;;;13.35;6.93;;;;;;;7.89;100.00;97643.31;2531874;29;20727;-90
2023/03/23 03:47:42;;;;;;;11.60;6.72;;;;;;;7.90;100.00;97639.78;2531520;29;20408;-87
2023/03/23 03:48:59;;;;;;;15.07;7.22;;;;;;;7.86;100.00;97638.19;2531082;29;20549;-89
2023/03/23 03:50:16;;;;;;;12.52;6.35;;;;;;;7.64;100.00;97638.81;2532205;29;20099;-88
2023/03/23 03:51:32;;;;;;;14.07;6.90;;;;;;;7.90;100.00;97643.28;2531668;29;20136;-87
2023/03/23 03:52:47;;;;;;;13.45;6.88;;;;;;;7.96;100.00;97641.38;2531383;29;20058;-89
2023/03/23 03:54:03;;;;;;;17.02;6.93;;;;;;;7.73;100.00;97637.69;2530066;29;20064;-87
2023/03/23 03:55:19;;;;;;;16.15;6.90;;;;;;;7.87;100.00;97637.28;2531692;29;20080;-89
2023/03/23 03:56:40;;;;;;;15.43;6.80;;;;;;;7.73;100.00;97640.28;2531242;29;20080;-87
2023/03/23 03:57:57;;;;;;;13.95;6.80;;;;;;;7.96;100.00;97644.84;2526571;29;20060;-89
2023/03/23 03:59:12;;;;;;;15.75;6.90;;;;;;;7.78;100.00;97646.25;2532099;29;20051;-87
2023/03/23 04:00:28;;;;;;;11.65;6.78;;;;;;;7.87;100.00;97652.94;2530620;29;20056;-87
2023/03/23 04:01:43;;;;;;;13.55;7.22;;;;;;;7.82;100.00;97650.44;2531388;29;20131;-87
2023/03/23 04:02:59;;;;;;;15.45;6.95;;;;;;;7.97;100.00;97649.16;2526561;29;20416;-88
2023/03/23 04:04:15;;;;;;;11.23;6.53;;;;;;;8.06;100.00;97648.00;2530783;29;20048;-87
2023/03/23 04:05:30;;;;;;;13.38;6.63;;;;;;;7.81;100.00;97648.75;2530772;29;20515;-86
2023/03/23 04:06:48;;;;;;;13.30;6.85;;;;;;;8.07;100.00;97657.53;2531558;29;20071;-88
2023/03/23 04:08:04;;;;;;;12.95;6.97;;;;;;;8.16;100.00;97651.19;2526371;29;20058;-88
2023/03/23 04:09:21;;;;;;;11.30;6.15;;;;;;;8.14;100.00;97658.22;2529820;29;20048;-89
2023/03/23 04:10:37;;;;;;;13.75;7.20;;;;;;;8.08;100.00;97655.78;2533119;29;20072;-87
2023/03/23 04:11:52;;;;;;;15.07;7.50;;;;;;;7.97;100.00;97659.59;2531098;29;20060;-87
2023/03/23 04:13:08;;;;;;;13.05;6.65;;;;;;;7.90;100.00;97658.91;2529092;29;20051;-88
2023/03/23 04:14:23;;;;;;;11.68;6.40;;;;;;;7.85;100.00;97658.16;2531640;29;20053;-89
2023/03/23 04:15:39;;;;;;;13.88;7.32;;;;;;;7.68;100.00;97653.44;2526693;29;20523;-88
2023/03/23 04:16:56;;;;;;;15.35;6.53;;;;;;;7.65;100.00;97652.72;2530472;29;20060;-87
2023/03/23 04:18:14;;;;;;;17.52;6.65;;;;;;;7.83;100.00;97659.13;2530215;29;20052;-87
2023/03/23 04:19:32;;;;;;;12.23;6.55;;;;;;;8.04;100.00;97658.47;2531581;29;20172;-87
2023/03/23 04:20:49;;;;;;;12.75;6.18;;;;;;;7.96;100.00;97657.88;2531538;29;20048;-86
2023/03/23 04:22:05;;;;;;;11.27;6.30;;;;;;;8.10;100.00;97656.56;2531321;29;20547;-87
2023/03/23 04:23:22;;;;;;;16.50;6.45;;;;;;;7.40;100.00;97656.84;2531570;29;20147;-87
2023/03/23 04:24:37;;;;;;;11.57;6.28;;;;;;;7.40;100.00;97659.44;2532494;29;20052;-88
2023/03/23 04:25:57;;;;;;;13.02;6.32;;;;;;;7.71;100.00;97650.78;2530462;29;20060;-87
2023/03/23 04:27:13;;;;;;;11.60;5.65;;;;;;;7.68;100.00;97650.00;2531409;29;20349;-88
2023/03/23 04:28:33;;;;;;;14.23;5.97;;;;;;;7.62;100.00;97656.25;2531680;29;20056;-90
2023/03/23 04:29:49;;;;;;;13.50;6.10;;;;;;;7.93;100.00;97654.50;2532410;29;20051;-87
2023/03/23 04:31:05;;;;;;;12.00;5.80;;;;;;;7.91;100.00;97654.53;2531562;29;20076;-87
2023/03/23 04:32:21;;;;;;;12.77;6.35;;;;;;;8.09;100.00;97652.25;2529502;29;20444;-88
2023/03/23 04:33:36;;;;;;;11.57;5.70;;;;;;;8.07;100.00;97657.53;2529968;29;20407;-89
2023/03/23 04:34:52;;;;;;;10.05;5.55;;;;;;;7.82;100.00;97652.19;2529709;29;20061;-88
2023/03/23 04:36:08;;;;;;;10.07;5.47;;;;;;;8.03;100.00;97655.91;2530997;29;20045;-87
2023/03/23 04:37:25;;;;;;;9.52;5.28;;;;;;;8.14;100.00;97655.59;2529634;29;20049;-87
2023/03/23 04:38:42;;;;;;;9.60;5.25;;;;;;;8.01;100.00;97668.13;2532268;29;20456;-87
2023/03/23 04:40:01;;;;;;;10.35;5.35;;;;;;;8.09;100.00;97657.47;2531820;29;20091;-89
2023/03/23 04:41:16;;;;;;;9.90;5.28;;;;;;;8.18;100.00;97657.19;2526703;29;20048;-88
2023/03/23 04:42:32;;;;;;;11.73;6.03;;;;;;;8.34;100.00;97655.81;2532627;29;20343;-88
2023/03/23 04:43:52;;;;;;;9.55;5.35;;;;;;;8.38;100.00;97653.97;2532543;29;20437;-88
2023/03/23 04:45:08;;;;;;;11.88;6.25;;;;;;;8.07;100.00;97662.75;2530706;29;20110;-87
2023/03/23 04:46:28;;;;;;;10.70;6.20;;;;;;;8.13;100.00;97672.16;2531835;29;20443;-85
2023/03/23 04:47:52;;;;;;;15.65;6.68;;;;;;;8.15;100.00;97667.72;2529492;29;20507;-87
2023/03/23 04:49:09;;;;;;;16.92;7.80;;;;;;;8.16;100.00;97664.22;2530087;29;20564;-86
2023/03/23 04:50:33;;;;;;;13.00;6.68;;;;;;;7.85;100.00;97670.38;2529636;29;20147;-90
2023/03/23 04:51:50;;;;;;;16.13;8.30;;;;;;;8.27;100.00;97669.97;2530682;29;20052;-87
2023/03/23 04:53:06;;;;;;;17.45;8.65;;;;;;;8.09;100.00;97668.78;2530600;29;20087;-88
2023/03/23 04:54:22;;;;;;;17.10;8.52;;;;;;;8.23;100.00;97668.34;2529922;29;20060;-87
2023/03/23 04:55:37;;;;;;;16.20;8.40;;;;;;;8.41;100.00;97669.50;2530349;29;20418;-87
2023/03/23 04:56:53;;;;;;;14.98;8.07;;;;;;;8.04;100.00;97668.06;2531415;29;20059;-87
2023/03/23 04:58:14;;;;;;;16.23;8.27;;;;;;;8.16;100.00;97657.25;2530394;29;20060;-88
2023/03/23 04:59:30;;;;;;;17.67;7.93;;;;;;;8.17;100.00;97664.19;2529608;29;20111;-87
2023/03/23 05:00:49;;;;;;;16.90;8.07;;;;;;;7.81;100.00;97671.34;2532411;29;20048;-88
2023/03/23 05:02:05;;;;;;;14.80;7.60;;;;;;;8.16;100.00;97664.22;2530520;29;20154;-89
2023/03/23 05:03:20;;;;;;;17.35;8.25;;;;;;;8.21;100.00;97664.91;2530172;29;20056;-88
2023/03/23 05:04:37;;;;;;;18.52;8.43;;;;;;;8.28;100.00;97666.44;2530038;29;20052;-87
2023/03/23 05:05:53;;;;;;;13.93;8.15;;;;;;;8.17;100.00;97661.59;2526269;29;20103;-87
2023/03/23 05:07:11;;;;;;;15.77;8.48;;;;;;;8.23;100.00;97660.50;2529955;29;20143;-88
2023/03/23 05:08:26;;;;;;;15.80;8.05;;;;;;;8.27;100.00;97664.75;2529661;29;20059;-88
2023/03/23 05:09:47;;;;;;;15.20;8.02;;;;;;;8.14;100.00;97660.81;2530282;29;20055;-87
2023/03/23 05:11:06;;;;;;;17.52;8.55;;;;;;;8.23;100.00;97662.28;2530901;29;20063;-88
2023/03/23 05:12:22;;;;;;;13.95;8.30;;;;;;;7.95;100.00;97668.34;2532121;29;20634;-90
2023/03/23 05:13:39;;;;;;;15.88;7.78;;;;;;;8.08;100.00;97668.81;2531323;29;20056;-89
2023/03/23 05:14:56;;;;;;;13.55;7.47;;;;;;;8.11;100.00;97664.34;2529874;29;20160;-88
2023/03/23 05:16:11;;;;;;;15.35;8.32;;;;;;;8.32;100.00;97670.66;2531604;29;20103;-87
2023/03/23 05:17:27;;;;;;;15.48;8.00;;;;;;;8.21;100.00;97667.53;2529300;29;20124;-89
2023/03/23 05:18:46;;;;;;;13.98;7.60;;;;;;;8.44;100.00;97666.81;2529521;29;20060;-88
2023/03/23 05:20:05;;;;;;;17.40;8.27;;;;;;;8.55;100.00;97666.50;2530575;29;20075;-87
2023/03/23 05:21:20;;;;;;;15.95;8.00;;;;;;;8.52;100.00;97656.19;2529254;29;20113;-90
2023/03/23 05:22:36;;;;;;;15.15;7.57;;;;;;;8.57;100.00;97656.00;2532159;29;20456;-87
2023/03/23 05:23:54;;;;;;;14.00;7.05;;;;;;;8.56;100.00;97657.78;2530648;29;20048;-87
2023/03/23 05:25:13;;;;;;;13.63;7.68;;;;;;;8.56;100.00;97657.78;2532873;29;20503;-88
2023/03/23 05:26:29;;;;;;;15.80;7.50;;;;;;;8.56;100.00;97656.91;2532119;29;20142;-88
2023/03/23 05:27:48;;;;;;;14.32;7.63;;;;;;;8.62;100.00;97656.72;2532480;29;20052;-88
2023/03/23 05:29:04;;;;;;;13.32;7.03;;;;;;;8.54;100.00;97656.97;2532523;29;20074;-87
2023/03/23 05:30:21;;;;;;;14.82;7.75;;;;;;;8.81;100.00;97656.09;2542445;29;20079;-90
2023/03/23 05:31:37;;;;;;;14.48;8.15;;;;;;;8.55;100.00;97656.06;2537824;29;20052;-88
2023/03/23 05:32:52;;;;;;;14.52;7.90;;;;;;;8.52;100.00;97658.78;2533049;29;20052;-88
2023/03/23 05:34:08;;;;;;;15.55;7.90;;;;;;;8.48;100.00;97655.38;2534030;29;20171;-87
2023/03/23 05:35:24;;;;;;;15.52;7.55;;;;;;;8.65;100.00;97659.22;2532833;29;20146;-90
2023/03/23 05:36:43;;;;;;;14.93;7.50;;;;;;;8.41;100.00;97658.25;2533217;29;20048;-87
2023/03/23 05:37:59;;;;;;;16.48;7.55;;;;;;;8.42;100.00;97655.56;2532735;29;20048;-86
2023/03/23 05:39:16;;;;;;;13.85;8.00;;;;;;;8.67;100.00;97653.97;2532235;29;20139;-86
2023/03/23 05:40:32;;;;;;;15.00;7.95;;;;;;;8.86;100.00;97652.44;2531110;29;20052;-86
2023/03/23 05:41:47;;;;;;;14.20;7.82;;;;;;;8.88;100.00;97650.63;2531226;29;20056;-87
2023/03/23 05:43:03;;;;;;;15.60;7.50;;;;;;;8.88;100.00;97649.78;2532160;29;20053;-86
2023/03/23 05:44:19;;;;;;;15.52;7.35;;;;;;;8.59;100.00;97647.22;2531029;29;20052;-86
2023/03/23 05:45:35;;;;;;;14.48;8.00;;;;;;;8.80;100.00;97647.44;2532846;29;20079;-86
2023/03/23 05:46:51;;;;;;;14.02;7.72;;;;;;;8.75;100.00;97647.59;2530999;29;20139;-86
2023/03/23 05:48:07;;;;;;;15.85;7.90;;;;;;;8.73;100.00;97651.16;2530963;29;20048;-86
2023/03/23 05:49:24;;;;;;;13.00;7.38;;;;;;;8.97;100.00;97653.84;2532336;29;20572;-87
2023/03/23 05:50:40;;;;;;;17.73;7.80;;;;;;;8.86;100.00;97652.44;2527307;29;20041;-86
2023/03/23 05:51:56;;;;;;;15.00;7.65;;;;;;;8.60;100.00;97641.13;2532401;29;20059;-87
2023/03/23 05:53:12;;;;;;;13.10;7.55;;;;;;;8.88;100.00;97657.63;2531486;29;20052;-89
2023/03/23 05:54:27;;;;;;;15.20;7.32;;;;;;;8.55;100.00;97645.63;2532175;29;20708;-88
2023/03/23 05:55:43;;;;;;;18.25;8.25;;;;;;;8.69;100.00;97644.34;2532705;29;20079;-87
2023/03/23 05:56:59;;;;;;;11.90;7.38;;;;;;;8.69;100.00;97642.56;2532653;29;20052;-87
2023/03/23 05:58:14;;;;;;;15.75;7.07;;;;;;;8.58;100.00;97647.28;2532366;29;20040;-89
2023/03/23 05:59:30;;;;;;;12.40;6.88;;;;;;;8.59;100.00;97642.03;2527642;29;20053;-87
2023/03/23 06:00:46;;;;;;;16.95;7.53;;;;;;;8.71;100.00;97643.34;2531711;29;20052;-91
2023/03/23 06:02:03;;;;;;;13.95;7.32;;;;;;;8.52;100.00;97627.47;2527458;29;20060;-89
2023/03/23 06:03:19;;;;;;;11.35;6.32;;;;;;;8.78;100.00;97624.91;2531942;29;20056;-88
2023/03/23 06:04:34;;;;;;;12.90;6.50;;;;;;;8.76;100.00;97630.16;2531598;29;20045;-85
2023/03/23 06:05:50;;;;;;;13.45;6.65;;;;;;;8.62;100.00;97630.63;2532453;29;20049;-86